Terminal Aerodrome Forecast
Issued by NWS

Home | Current Version | Previous Version | Text Only | Print | Product List | Glossary On
Versions: 1 2 3 4 5 6 7 8 9 10 11 12 13 14 15 16 17 18 19 20 21 22 23 24 25 26
000
FTAK31 PAJN 040704 AAA
TAFAJN
TAF AMD
PAJN 040704Z 0407/0506 VRB06KT P6SM FEW005 SCT010 BKN045
      TEMPO 0407/0411 07006KT 6SM BR FEW002 SCT005 SCT010
     FM041200 07010KT P6SM FEW002 SCT008 SCT040
      TEMPO 0412/0416 00000KT 6SM BR SCT002 SCT008
     FM041700 07015KT P6SM SKC WS020/07030KT=

USA.gov is the U.S. government's official web portal to all federal, state and local government web resources and services.